createdAt,value
2019-03-21T00:01:31.600Z,3.13
2019-03-21T00:04:04.063Z,3.10
2019-03-21T00:06:33.815Z,2.80
2019-03-21T00:09:05.047Z,2.90
2019-03-21T00:12:08.305Z,3.03
2019-03-21T00:15:13.438Z,2.80
2019-03-21T00:17:49.619Z,2.80
2019-03-21T00:20:19.069Z,3.40
2019-03-21T00:22:48.745Z,3.33
2019-03-21T00:25:20.880Z,3.20
2019-03-21T00:27:50.706Z,3.10
2019-03-21T00:30:21.381Z,2.83
2019-03-21T00:32:51.009Z,3.40
2019-03-21T00:35:20.470Z,2.67
2019-03-21T00:37:50.258Z,3.00
2019-03-21T00:40:23.107Z,3.17
2019-03-21T00:42:52.967Z,3.43
2019-03-21T00:45:22.352Z,2.73
2019-03-21T00:47:52.094Z,2.60
2019-03-21T00:50:23.122Z,2.87
2019-03-21T00:52:53.355Z,3.00
2019-03-21T00:55:23.179Z,2.90
2019-03-21T00:57:52.542Z,3.40
2019-03-21T01:00:25.069Z,3.37
2019-03-21T01:02:54.479Z,2.87
2019-03-21T01:05:23.921Z,3.30
2019-03-21T01:07:53.687Z,2.93
2019-03-21T01:10:23.907Z,3.40
2019-03-21T01:12:53.531Z,2.93
2019-03-21T01:15:22.926Z,3.47
2019-03-21T01:17:52.367Z,3.33
2019-03-21T01:20:21.767Z,3.20
2019-03-21T01:22:51.356Z,3.43
2019-03-21T01:25:27.428Z,3.43
2019-03-21T01:27:57.220Z,3.47
2019-03-21T01:30:26.700Z,3.70
2019-03-21T01:32:56.156Z,3.90
2019-03-21T01:35:26.091Z,3.40
2019-03-21T01:37:55.749Z,10.77
2019-03-21T01:40:26.004Z,8.13
2019-03-21T01:42:55.438Z,7.73
2019-03-21T01:45:24.907Z,7.13
2019-03-21T01:47:54.739Z,8.40
2019-03-21T01:50:24.641Z,7.60
2019-03-21T01:52:54.683Z,6.47
2019-03-21T01:55:24.185Z,6.03
2019-03-21T01:57:53.855Z,6.57
2019-03-21T02:00:26.033Z,4.33
2019-03-21T02:02:57.015Z,4.73
2019-03-21T02:05:26.534Z,7.07
2019-03-21T02:07:56.260Z,4.00
2019-03-21T02:10:26.081Z,4.80
2019-03-21T02:12:55.494Z,3.63
2019-03-21T02:15:25.183Z,4.03
2019-03-21T02:17:54.613Z,3.90
2019-03-21T02:20:24.070Z,4.50
2019-03-21T02:22:53.696Z,3.40
2019-03-21T02:25:25.828Z,3.30
2019-03-21T02:27:55.708Z,2.93
2019-03-21T02:30:27.890Z,2.97
2019-03-21T02:33:00.566Z,3.37
2019-03-21T02:35:31.102Z,3.00
2019-03-21T02:38:00.939Z,3.40
2019-03-21T02:40:30.559Z,4.10
2019-03-21T02:42:59.935Z,3.00
2019-03-21T02:45:29.669Z,3.60
2019-03-21T02:47:59.617Z,4.23
2019-03-21T02:50:31.352Z,3.27
2019-03-21T02:53:01.404Z,4.20
2019-03-21T02:55:31.115Z,3.27
2019-03-21T02:58:00.836Z,3.97
2019-03-21T03:00:31.009Z,3.10
2019-03-21T03:03:01.106Z,3.43
2019-03-21T03:05:30.970Z,3.20
2019-03-21T03:08:00.564Z,3.73
2019-03-21T03:10:38.686Z,3.57
2019-03-21T03:13:08.378Z,2.83
2019-03-21T03:15:37.913Z,3.87
2019-03-21T03:18:07.426Z,3.80
2019-03-21T03:20:37.108Z,3.90
2019-03-21T03:23:06.722Z,3.80
2019-03-21T03:25:36.655Z,3.47
2019-03-21T03:28:09.362Z,3.77
2019-03-21T03:30:38.909Z,3.87
2019-03-21T03:33:08.410Z,4.07
2019-03-21T03:35:37.836Z,4.00
2019-03-21T03:38:07.502Z,7.77
2019-03-21T03:40:39.700Z,16.27
2019-03-21T03:43:09.392Z,11.47
2019-03-21T03:45:38.938Z,10.93
2019-03-21T03:48:08.507Z,6.77
2019-03-21T03:50:38.275Z,5.73
2019-03-21T03:53:08.255Z,5.90
2019-03-21T03:55:37.759Z,6.50
2019-03-21T03:58:09.203Z,5.60
2019-03-21T04:00:39.050Z,6.03
2019-03-21T04:03:08.716Z,6.07
2019-03-21T04:05:38.615Z,6.60
2019-03-21T04:08:08.143Z,7.37
2019-03-21T04:10:39.821Z,6.90
2019-03-21T04:13:09.585Z,6.13
2019-03-21T04:15:51.702Z,5.20
2019-03-21T04:18:10.827Z,5.20
2019-03-21T04:20:41.537Z,4.60
2019-03-21T04:23:11.174Z,4.90
2019-03-21T04:25:46.732Z,5.73
2019-03-21T04:28:16.785Z,4.77
2019-03-21T04:30:47.599Z,4.93
2019-03-21T04:33:17.115Z,5.27
2019-03-21T04:35:46.603Z,4.57
2019-03-21T04:38:16.315Z,7.83
2019-03-21T04:40:45.670Z,5.50
2019-03-21T04:43:15.358Z,5.90
2019-03-21T04:45:44.779Z,5.27
2019-03-21T04:48:14.751Z,6.30
2019-03-21T04:50:44.231Z,7.20
2019-03-21T04:53:13.674Z,7.67
2019-03-21T04:55:43.066Z,7.20
2019-03-21T04:58:12.510Z,7.00
2019-03-21T05:00:41.986Z,6.93
2019-03-21T05:03:11.475Z,6.50
2019-03-21T05:05:40.987Z,5.70
2019-03-21T05:08:10.342Z,4.63
2019-03-21T05:10:39.766Z,5.00
2019-03-21T05:13:09.214Z,5.70
2019-03-21T05:15:39.618Z,5.77
2019-03-21T05:18:15.189Z,4.87
2019-03-21T05:20:45.119Z,5.67
2019-03-21T05:23:14.635Z,4.47
2019-03-21T05:25:43.990Z,4.70
2019-03-21T05:28:13.348Z,4.83
2019-03-21T05:30:46.206Z,4.00
2019-03-21T05:33:15.992Z,10.27
2019-03-21T05:35:45.684Z,5.47
2019-03-21T05:38:15.226Z,6.20
2019-03-21T05:40:44.774Z,7.83
2019-03-21T05:43:20.255Z,9.67
2019-03-21T05:45:49.701Z,4.77
2019-03-21T05:48:19.366Z,5.67
2019-03-21T05:50:48.720Z,4.53
2019-03-21T05:53:18.086Z,5.70
2019-03-21T05:55:47.827Z,5.70
2019-03-21T05:58:17.190Z,6.50
2019-03-21T06:00:46.986Z,8.47
2019-03-21T06:03:25.950Z,6.67
2019-03-21T06:05:59.341Z,6.17
2019-03-21T06:08:31.943Z,7.60
2019-03-21T06:11:01.609Z,8.13
2019-03-21T06:13:30.958Z,10.70
2019-03-21T06:16:12.846Z,7.80
2019-03-21T06:19:15.266Z,6.20
2019-03-21T06:22:16.329Z,7.20
2019-03-21T06:25:15.866Z,5.97
2019-03-21T06:27:44.274Z,5.47
2019-03-21T06:30:13.715Z,5.20
2019-03-21T06:32:43.485Z,8.10
2019-03-21T06:35:31.091Z,8.60
2019-03-21T06:38:00.449Z,15.30
2019-03-21T06:40:30.051Z,6.90
2019-03-21T06:42:59.648Z,4.77
2019-03-21T06:45:29.007Z,4.40
2019-03-21T06:47:58.655Z,4.80
2019-03-21T06:50:28.019Z,4.30
2019-03-21T06:52:57.683Z,5.27
2019-03-21T06:55:27.051Z,6.00
2019-03-21T06:57:56.386Z,9.70
2019-03-21T07:00:26.330Z,8.40
2019-03-21T07:02:55.744Z,8.30
2019-03-21T07:05:26.745Z,6.67
2019-03-21T07:07:56.294Z,7.37
2019-03-21T07:10:25.896Z,6.70
2019-03-21T07:12:55.232Z,5.47
2019-03-21T07:15:24.926Z,5.90
2019-03-21T07:17:54.517Z,6.10
2019-03-21T07:20:24.448Z,5.43
2019-03-21T07:22:54.047Z,4.60
2019-03-21T07:25:23.413Z,4.57
2019-03-21T07:27:52.834Z,5.10
2019-03-21T07:30:22.515Z,5.50
2019-03-21T07:32:52.198Z,4.83
2019-03-21T07:35:21.541Z,4.83
2019-03-21T07:37:50.978Z,5.13
2019-03-21T07:40:20.563Z,4.70
2019-03-21T07:42:49.921Z,5.10
2019-03-21T07:45:19.335Z,5.13
2019-03-21T07:47:48.928Z,5.10
2019-03-21T07:50:18.516Z,4.73
2019-03-21T07:52:47.940Z,5.47
2019-03-21T07:55:17.843Z,4.80
2019-03-21T07:57:47.453Z,4.87
2019-03-21T08:00:16.891Z,5.57
2019-03-21T08:02:46.659Z,5.60
2019-03-21T08:05:16.683Z,5.93
2019-03-21T08:07:46.769Z,5.80
2019-03-21T08:10:16.123Z,5.43
2019-03-21T08:12:45.626Z,4.90
2019-03-21T08:15:15.233Z,5.90
2019-03-21T08:17:44.925Z,5.70
2019-03-21T08:20:14.463Z,5.10
2019-03-21T08:22:44.084Z,5.20
2019-03-21T08:25:14.037Z,5.00
2019-03-21T08:27:43.632Z,4.97
2019-03-21T08:30:29.021Z,5.13
2019-03-21T08:32:58.358Z,5.23
2019-03-21T08:35:27.943Z,5.57
2019-03-21T08:37:57.447Z,5.17
2019-03-21T08:40:27.178Z,4.60
2019-03-21T08:42:56.682Z,4.63
2019-03-21T08:45:26.339Z,4.77
2019-03-21T08:47:55.850Z,4.70
2019-03-21T08:50:25.795Z,4.80
2019-03-21T08:52:55.485Z,4.60
2019-03-21T08:55:25.383Z,4.23
2019-03-21T08:57:55.474Z,3.23
2019-03-21T09:00:33.798Z,2.90
2019-03-21T09:02:56.409Z,2.83
2019-03-21T09:05:26.811Z,2.67
2019-03-21T09:07:56.158Z,2.30
2019-03-21T09:10:25.755Z,2.80
2019-03-21T09:12:55.375Z,2.53
2019-03-21T09:15:25.063Z,2.40
2019-03-21T09:17:55.533Z,2.80
2019-03-21T09:20:25.275Z,2.87
2019-03-21T09:22:54.722Z,3.13
2019-03-21T09:25:24.075Z,2.80
2019-03-21T09:28:02.146Z,2.57
2019-03-21T09:30:25.234Z,3.83
2019-03-21T09:32:55.079Z,3.20
2019-03-21T09:35:24.502Z,2.50
2019-03-21T09:37:53.871Z,2.70
2019-03-21T09:40:23.468Z,2.67
2019-03-21T09:42:53.403Z,2.70
2019-03-21T09:45:23.083Z,2.83
2019-03-21T09:47:53.347Z,3.20
2019-03-21T09:50:28.266Z,2.57
2019-03-21T09:52:58.027Z,2.70
2019-03-21T09:55:27.699Z,2.70
2019-03-21T09:57:57.295Z,2.70
2019-03-21T10:00:31.710Z,3.27
2019-03-21T10:03:01.639Z,2.73
2019-03-21T10:05:31.508Z,2.30
2019-03-21T10:08:01.562Z,2.63
2019-03-21T10:10:32.008Z,2.73
2019-03-21T10:13:01.628Z,2.63
2019-03-21T10:15:31.093Z,2.50
2019-03-21T10:18:00.863Z,2.23
2019-03-21T10:20:30.470Z,2.90
2019-03-21T10:22:59.923Z,2.40
2019-03-21T10:25:29.254Z,3.07
2019-03-21T10:27:58.855Z,2.33
2019-03-21T10:30:36.453Z,2.67
2019-03-21T10:33:06.873Z,2.27
2019-03-21T10:35:36.290Z,2.13
2019-03-21T10:38:06.863Z,2.53
2019-03-21T10:40:36.491Z,2.87
2019-03-21T10:43:06.392Z,2.60
2019-03-21T10:45:36.285Z,3.10
2019-03-21T10:48:06.394Z,3.60
2019-03-21T10:50:37.214Z,4.43
2019-03-21T10:53:07.034Z,3.03
2019-03-21T10:55:37.070Z,3.17
2019-03-21T10:58:07.105Z,3.70
2019-03-21T11:00:37.435Z,4.13
2019-03-21T11:03:08.071Z,2.90
2019-03-21T11:05:37.763Z,2.70
2019-03-21T11:08:07.597Z,2.60
2019-03-21T11:10:37.287Z,3.40
2019-03-21T11:13:06.979Z,2.67
2019-03-21T11:15:36.516Z,2.70
2019-03-21T11:18:06.098Z,3.40
2019-03-21T11:20:40.033Z,2.90
2019-03-21T11:23:09.932Z,2.87
2019-03-21T11:25:39.684Z,2.40
2019-03-21T11:28:09.453Z,3.13
2019-03-21T11:30:43.654Z,2.87
2019-03-21T11:33:13.156Z,2.50
2019-03-21T11:35:42.602Z,3.10
2019-03-21T11:38:12.134Z,3.40
2019-03-21T11:40:41.514Z,2.60
2019-03-21T11:43:15.907Z,2.30
2019-03-21T11:45:47.685Z,2.40
2019-03-21T11:48:16.917Z,2.50
2019-03-21T11:50:46.993Z,2.87
2019-03-21T11:53:16.430Z,2.77
2019-03-21T11:55:45.854Z,2.30
2019-03-21T11:58:17.679Z,2.27
2019-03-21T12:00:47.107Z,2.50
2019-03-21T12:03:16.522Z,2.60
2019-03-21T12:05:46.221Z,2.37
2019-03-21T12:08:15.599Z,2.70
2019-03-21T12:10:45.188Z,2.37
2019-03-21T12:13:14.793Z,2.47
2019-03-21T12:15:44.232Z,2.80
2019-03-21T12:18:13.580Z,2.60
2019-03-21T12:20:43.216Z,2.77
2019-03-21T12:23:12.811Z,2.63
2019-03-21T12:25:42.247Z,2.97
2019-03-21T12:28:11.667Z,2.60
2019-03-21T12:30:42.346Z,2.77
2019-03-21T12:33:11.905Z,3.37
2019-03-21T12:35:41.682Z,2.97
2019-03-21T12:38:11.858Z,2.47
2019-03-21T12:40:41.546Z,4.27
2019-03-21T12:43:10.957Z,2.87
2019-03-21T12:45:40.649Z,3.20
2019-03-21T12:48:10.330Z,3.20
2019-03-21T12:50:39.787Z,2.53
2019-03-21T12:53:09.206Z,3.50
2019-03-21T12:55:38.972Z,2.90
2019-03-21T12:58:08.646Z,2.90
2019-03-21T13:00:42.394Z,3.07
2019-03-21T13:03:12.263Z,3.13
2019-03-21T13:05:42.259Z,3.37
2019-03-21T13:08:11.958Z,3.20
2019-03-21T13:10:41.391Z,3.20
2019-03-21T13:13:11.194Z,2.83
2019-03-21T13:15:40.698Z,2.87
2019-03-21T13:18:10.211Z,3.00
2019-03-21T13:20:39.718Z,2.93
2019-03-21T13:23:09.436Z,3.07
2019-03-21T13:25:39.094Z,3.00
2019-03-21T13:28:08.827Z,3.10
2019-03-21T13:30:38.611Z,3.17
2019-03-21T13:33:08.089Z,3.27
2019-03-21T13:35:37.802Z,3.10
2019-03-21T13:38:07.564Z,3.23
2019-03-21T13:40:36.983Z,3.20
2019-03-21T13:43:06.870Z,3.83
2019-03-21T13:45:37.127Z,3.50
2019-03-21T13:48:06.622Z,3.53
2019-03-21T13:50:36.479Z,3.23
2019-03-21T13:53:17.774Z,3.17
2019-03-21T13:55:37.454Z,3.57
2019-03-21T13:58:07.134Z,3.40
2019-03-21T14:00:36.810Z,3.40
2019-03-21T14:03:06.231Z,3.20
2019-03-21T14:05:35.742Z,3.07
2019-03-21T14:08:05.512Z,2.93
2019-03-21T14:10:34.938Z,3.10
2019-03-21T14:13:04.696Z,3.37
2019-03-21T14:15:34.626Z,3.43
2019-03-21T14:18:04.220Z,3.07
2019-03-21T14:20:33.662Z,3.20
2019-03-21T14:23:03.284Z,3.23
2019-03-21T14:25:33.265Z,3.50
2019-03-21T14:28:02.942Z,3.43
2019-03-21T14:30:32.407Z,3.70
2019-03-21T14:33:01.779Z,3.50
2019-03-21T14:35:32.072Z,3.80
2019-03-21T14:38:01.899Z,2.93
2019-03-21T14:40:31.803Z,3.87
2019-03-21T14:43:01.407Z,3.40
2019-03-21T14:45:31.259Z,3.70
2019-03-21T14:48:01.234Z,4.10
2019-03-21T14:50:30.901Z,3.67
2019-03-21T14:53:00.571Z,3.37
2019-03-21T14:55:30.219Z,3.93
2019-03-21T14:57:59.822Z,3.33
2019-03-21T15:00:29.575Z,3.53
2019-03-21T15:02:59.252Z,3.90
2019-03-21T15:05:28.855Z,3.53
2019-03-21T15:07:58.555Z,3.83
2019-03-21T15:10:27.936Z,3.43
2019-03-21T15:12:57.555Z,3.73
2019-03-21T15:15:26.974Z,3.30
2019-03-21T15:17:58.681Z,3.83
2019-03-21T15:20:27.790Z,4.40
2019-03-21T15:22:57.210Z,3.63
2019-03-21T15:25:27.122Z,3.97
2019-03-21T15:27:56.521Z,3.60
2019-03-21T15:30:26.228Z,4.10
2019-03-21T15:32:55.587Z,3.53
2019-03-21T15:35:24.958Z,3.73
2019-03-21T15:37:54.886Z,3.83
2019-03-21T15:40:24.576Z,3.73
2019-03-21T15:42:53.922Z,3.63
2019-03-21T15:45:24.193Z,3.50
2019-03-21T15:47:53.621Z,3.40
2019-03-21T15:50:33.876Z,3.50
2019-03-21T15:53:03.761Z,3.77
2019-03-21T15:55:33.510Z,3.97
2019-03-21T15:58:03.092Z,3.80
2019-03-21T16:00:34.503Z,4.47
2019-03-21T16:03:04.360Z,3.83
2019-03-21T16:05:33.861Z,4.73
2019-03-21T16:08:03.371Z,4.00
2019-03-21T16:10:33.132Z,3.70
2019-03-21T16:13:02.501Z,4.20
2019-03-21T16:15:32.431Z,4.17
2019-03-21T16:18:02.044Z,4.17
2019-03-21T16:20:31.979Z,4.33
2019-03-21T16:23:01.407Z,3.80
2019-03-21T16:25:30.899Z,4.43
2019-03-21T16:28:01.320Z,4.07
2019-03-21T16:30:30.739Z,4.63
2019-03-21T16:33:00.578Z,4.80
2019-03-21T16:35:30.019Z,6.27
2019-03-21T16:37:59.710Z,6.70
2019-03-21T16:40:29.325Z,5.37
2019-03-21T16:42:58.673Z,4.67
2019-03-21T16:45:28.358Z,4.87
2019-03-21T16:47:57.789Z,6.40
2019-03-21T16:50:27.526Z,5.03
2019-03-21T16:52:57.172Z,4.93
2019-03-21T16:55:26.545Z,4.20
2019-03-21T16:57:56.211Z,4.50
2019-03-21T17:00:25.973Z,4.40
2019-03-21T17:02:56.077Z,5.30
2019-03-21T17:05:25.752Z,6.07
2019-03-21T17:07:55.115Z,5.23
2019-03-21T17:10:24.491Z,4.93
2019-03-21T17:12:54.081Z,4.87
2019-03-21T17:15:23.436Z,5.70
2019-03-21T17:17:53.181Z,5.00
2019-03-21T17:20:23.158Z,4.90
2019-03-21T17:22:52.569Z,5.90
2019-03-21T17:25:22.246Z,6.20
2019-03-21T17:27:54.531Z,4.83
2019-03-21T17:30:22.819Z,4.57
2019-03-21T17:32:52.245Z,5.00
2019-03-21T17:35:21.704Z,5.40
2019-03-21T17:42:59.788Z,6.03
2019-03-21T17:45:29.586Z,6.50
2019-03-21T17:47:59.229Z,6.37
2019-03-21T17:50:28.816Z,5.10
2019-03-21T17:52:58.929Z,6.47
2019-03-21T17:55:28.308Z,6.80
2019-03-21T17:57:57.846Z,5.87
2019-03-21T18:00:28.316Z,6.50
2019-03-21T18:02:57.786Z,6.20
2019-03-21T18:05:27.598Z,9.10
2019-03-21T18:07:57.209Z,27.40
2019-03-21T18:10:28.397Z,11.77
2019-03-21T18:12:58.086Z,7.37
2019-03-21T18:15:28.009Z,5.57
2019-03-21T18:17:57.725Z,6.33
2019-03-21T18:20:27.176Z,5.47
2019-03-21T18:22:57.390Z,5.20
2019-03-21T18:25:26.985Z,5.53
2019-03-21T18:27:56.518Z,5.23
2019-03-21T18:30:26.021Z,6.50
2019-03-21T18:32:55.574Z,7.50
2019-03-21T18:35:25.271Z,7.00
2019-03-21T18:37:54.880Z,6.47
2019-03-21T18:40:24.781Z,6.30
2019-03-21T18:42:54.445Z,6.97
2019-03-21T18:45:24.157Z,7.03
2019-03-21T18:47:53.702Z,7.77
2019-03-21T18:50:23.609Z,9.87
2019-03-21T18:52:54.214Z,9.40
2019-03-21T18:55:24.128Z,10.90
2019-03-21T18:57:53.702Z,10.97
2019-03-21T19:00:23.211Z,9.60
2019-03-21T19:02:52.844Z,10.97
2019-03-21T19:05:22.473Z,11.03
2019-03-21T19:07:52.553Z,9.50
2019-03-21T19:10:22.118Z,8.33
2019-03-21T19:12:51.585Z,8.50
2019-03-21T19:15:21.262Z,8.10
2019-03-21T19:17:50.850Z,22.07
2019-03-21T19:20:20.801Z,14.33
2019-03-21T19:22:50.397Z,8.87
2019-03-21T19:25:20.067Z,9.87
2019-03-21T19:27:49.537Z,9.17
2019-03-21T19:30:19.504Z,7.37
2019-03-21T19:32:49.446Z,6.23
2019-03-21T19:35:19.038Z,5.83
2019-03-21T19:37:48.420Z,6.23
2019-03-21T19:40:18.212Z,5.80
2019-03-21T19:42:47.878Z,6.80
2019-03-21T19:45:17.506Z,7.40
2019-03-21T19:47:47.512Z,9.03
2019-03-21T19:50:17.194Z,11.63
2019-03-21T19:52:46.639Z,7.60
2019-03-21T19:55:16.593Z,7.70
2019-03-21T19:57:46.811Z,8.73
2019-03-21T20:00:18.105Z,8.03
2019-03-21T20:02:47.674Z,10.47
2019-03-21T20:05:17.341Z,8.47
2019-03-21T20:07:46.715Z,8.00
2019-03-21T20:10:18.010Z,6.37
2019-03-21T20:12:47.850Z,6.03
2019-03-21T20:15:17.942Z,6.30
2019-03-21T20:17:47.534Z,6.33
2019-03-21T20:20:17.327Z,6.63
2019-03-21T20:22:46.890Z,9.27
2019-03-21T20:25:16.346Z,10.10
2019-03-21T20:27:46.235Z,19.50
2019-03-21T20:30:18.264Z,15.13
2019-03-21T20:32:48.157Z,13.00
2019-03-21T20:35:17.896Z,9.17
2019-03-21T20:37:47.846Z,8.10
2019-03-21T20:40:18.341Z,7.13
2019-03-21T20:42:48.467Z,6.13
2019-03-21T20:45:19.284Z,6.00
2019-03-21T20:47:48.950Z,6.57
2019-03-21T20:50:18.403Z,6.20
2019-03-21T20:52:48.019Z,5.93
2019-03-21T20:55:17.954Z,6.13
2019-03-21T20:57:47.600Z,6.10
2019-03-21T21:00:19.094Z,7.50
2019-03-21T21:02:48.733Z,7.23
2019-03-21T21:05:18.160Z,6.30
2019-03-21T21:07:47.466Z,7.27
2019-03-21T21:10:16.913Z,6.07
2019-03-21T21:12:46.465Z,6.23
2019-03-21T21:15:16.755Z,7.70
2019-03-21T21:17:46.543Z,7.20
2019-03-21T21:20:16.383Z,9.97
2019-03-21T21:22:46.039Z,7.43
2019-03-21T21:25:15.920Z,7.50
2019-03-21T21:27:49.837Z,6.93
2019-03-21T21:30:17.592Z,7.33
2019-03-21T21:32:47.503Z,6.83
2019-03-21T21:35:17.045Z,6.73
2019-03-21T21:37:46.921Z,7.47
2019-03-21T21:40:16.804Z,7.20
2019-03-21T21:42:46.375Z,7.10
2019-03-21T21:45:16.382Z,7.80
2019-03-21T21:47:45.830Z,6.17
2019-03-21T21:50:15.329Z,7.10
2019-03-21T21:52:44.730Z,7.00
2019-03-21T21:55:14.869Z,7.17
2019-03-21T21:57:44.324Z,7.30
2019-03-21T22:00:15.457Z,6.27
2019-03-21T22:02:44.856Z,6.93
2019-03-21T22:05:14.455Z,6.53
2019-03-21T22:07:44.545Z,5.80
2019-03-21T22:10:14.554Z,5.67
2019-03-21T22:12:44.112Z,5.80
2019-03-21T22:15:13.609Z,6.20
2019-03-21T22:17:43.077Z,5.70
2019-03-21T22:20:14.084Z,5.77
2019-03-21T22:22:43.736Z,5.43
2019-03-21T22:25:13.229Z,6.53
2019-03-21T22:27:42.697Z,6.13
2019-03-21T22:30:13.201Z,5.60
2019-03-21T22:32:43.140Z,6.07
2019-03-21T22:35:12.932Z,5.53
2019-03-21T22:37:42.410Z,5.93
2019-03-21T22:40:11.979Z,5.80
2019-03-21T22:42:41.837Z,5.53
2019-03-21T22:45:11.676Z,5.47
2019-03-21T22:47:41.933Z,6.23
2019-03-21T22:50:14.891Z,4.73
2019-03-21T22:52:44.576Z,6.27
2019-03-21T22:55:14.227Z,6.90
2019-03-21T22:57:43.896Z,6.97
2019-03-21T23:00:18.037Z,5.23
2019-03-21T23:02:47.691Z,4.83
2019-03-21T23:05:17.668Z,4.87
2019-03-21T23:07:46.973Z,5.00
2019-03-21T23:10:16.521Z,4.80
2019-03-21T23:12:45.981Z,5.57
2019-03-21T23:15:15.627Z,5.27
2019-03-21T23:17:45.169Z,5.40
2019-03-21T23:20:15.321Z,6.30
2019-03-21T23:22:45.261Z,5.40
2019-03-21T23:25:17.057Z,6.30
2019-03-21T23:27:46.471Z,6.77
2019-03-21T23:30:16.065Z,6.17
2019-03-21T23:32:45.686Z,5.57
2019-03-21T23:35:15.472Z,5.27
2019-03-21T23:37:44.987Z,5.83
2019-03-21T23:40:14.716Z,6.00
2019-03-21T23:42:44.100Z,5.33
2019-03-21T23:45:13.936Z,4.47
2019-03-21T23:47:43.399Z,5.37
2019-03-21T23:50:14.446Z,5.67
2019-03-21T23:52:43.954Z,5.23
2019-03-21T23:55:13.620Z,5.10
2019-03-21T23:57:43.042Z,4.67
